Time,TemperatureF,DewpointF,PressureIn,WindDirection,WindDirectionDegrees,WindSpeedMPH,WindSpeedGustMPH,Humidity,HourlyPrecipIn,Conditions,Clouds,dailyrainin,SoftwareType,DateUTC
2014-11-27 00:02:00,36.2,34.9,30.01,NE,46,0.0,0.0,95,0.00,,,0.00,VWS V14.01,2014-11-27 05:02:00,
2014-11-27 00:07:00,36.2,34.9,30.01,NE,46,0.0,0.0,95,0.00,,,0.00,VWS V14.01,2014-11-27 05:07:00,
2014-11-27 00:12:00,36.2,34.9,30.01,NE,46,0.0,0.0,95,0.00,,,0.00,VWS V14.01,2014-11-27 05:12:00,
2014-11-27 00:17:00,36.2,34.9,30.01,NE,46,0.0,0.0,95,0.00,,,0.00,VWS V14.01,2014-11-27 05:17:00,
2014-11-27 00:22:00,36.1,34.8,30.00,NE,46,0.0,0.0,95,0.00,,,0.00,VWS V14.01,2014-11-27 05:22:00,
2014-11-27 00:27:00,36.1,34.8,30.00,NE,46,0.0,0.0,95,0.00,,,0.00,VWS V14.01,2014-11-27 05:27:00,
2014-11-27 00:32:00,36.0,34.7,30.00,NE,46,0.0,0.0,95,0.00,,,0.00,VWS V14.01,2014-11-27 05:32:00,
2014-11-27 00:37:00,35.9,34.6,30.00,NE,46,0.0,0.0,95,0.00,,,0.00,VWS V14.01,2014-11-27 05:37:00,
2014-11-27 00:42:00,35.8,34.5,29.99,NE,46,0.0,0.0,95,0.00,,,0.00,VWS V14.01,2014-11-27 05:42:00,
2014-11-27 00:47:00,35.6,34.3,30.00,NE,46,0.0,0.0,95,0.00,,,0.00,VWS V14.01,2014-11-27 05:47:00,
2014-11-27 00:52:00,35.5,34.2,30.01,NE,46,0.0,0.0,95,0.00,,,0.00,VWS V14.01,2014-11-27 05:52:00,
2014-11-27 00:57:00,35.3,34.0,30.01,NE,46,0.0,0.0,95,0.00,,,0.00,VWS V14.01,2014-11-27 05:57:00,
2014-11-27 01:02:00,35.2,33.9,30.00,NE,46,0.0,0.0,95,0.00,,,0.00,VWS V14.01,2014-11-27 06:02:00,
2014-11-27 01:07:00,35.1,33.8,30.00,NE,46,0.0,0.0,95,0.00,,,0.00,VWS V14.01,2014-11-27 06:07:00,
2014-11-27 01:12:00,35.0,33.7,30.00,NE,46,0.0,0.0,95,0.00,,,0.00,VWS V14.01,2014-11-27 06:12:00,
2014-11-27 01:17:00,35.0,34.0,30.00,NE,46,0.0,0.0,96,0.00,,,0.00,VWS V14.01,2014-11-27 06:17:00,
2014-11-27 01:22:00,34.9,33.9,30.00,NE,46,0.0,0.0,96,0.00,,,0.00,VWS V14.01,2014-11-27 06:22:00,
2014-11-27 01:27:00,34.9,33.9,30.00,NE,46,0.0,0.0,96,0.00,,,0.00,VWS V14.01,2014-11-27 06:27:00,
2014-11-27 01:32:00,34.8,33.8,30.00,NE,46,0.0,0.0,96,0.00,,,0.00,VWS V14.01,2014-11-27 06:32:00,
2014-11-27 01:37:00,34.8,33.8,30.01,NE,46,0.0,0.0,96,0.00,,,0.00,VWS V14.01,2014-11-27 06:37:00,
2014-11-27 01:42:00,34.8,33.8,30.02,NE,46,0.0,0.0,96,0.00,,,0.00,VWS V14.01,2014-11-27 06:42:00,
2014-11-27 01:47:00,34.8,33.8,30.02,NE,46,0.0,0.0,96,0.00,,,0.00,VWS V14.01,2014-11-27 06:47:00,
2014-11-27 01:52:00,34.8,33.8,30.02,NE,46,0.0,0.0,96,0.00,,,0.00,VWS V14.01,2014-11-27 06:52:00,
2014-11-27 01:57:00,34.9,34.1,30.02,NE,46,0.0,0.0,97,0.00,,,0.00,VWS V14.01,2014-11-27 06:57:00,
2014-11-27 02:02:00,35.0,34.2,30.03,NE,46,0.0,0.0,97,0.00,,,0.00,VWS V14.01,2014-11-27 07:02:00,
2014-11-27 02:07:00,35.1,34.3,30.03,NE,46,0.0,0.0,97,0.00,,,0.00,VWS V14.01,2014-11-27 07:07:00,
2014-11-27 02:12:00,35.1,34.3,30.02,NE,46,0.0,0.0,97,0.00,,,0.00,VWS V14.01,2014-11-27 07:12:00,
2014-11-27 02:17:00,35.1,34.3,30.02,NE,46,0.0,0.0,97,0.00,,,0.00,VWS V14.01,2014-11-27 07:17:00,
2014-11-27 02:22:00,35.2,34.4,30.02,NE,46,0.0,0.0,97,0.00,,,0.00,VWS V14.01,2014-11-27 07:22:00,
2014-11-27 02:27:00,35.2,34.4,30.03,NE,46,0.0,0.0,97,0.00,,,0.00,VWS V14.01,2014-11-27 07:27:00,
2014-11-27 02:32:00,35.2,34.4,30.04,NE,46,0.0,0.0,97,0.00,,,0.00,VWS V14.01,2014-11-27 07:32:00,
2014-11-27 02:37:00,35.3,34.5,30.04,NE,46,0.0,0.0,97,0.00,,,0.00,VWS V14.01,2014-11-27 07:37:00,
2014-11-27 02:42:00,35.2,34.4,30.04,NE,46,0.0,0.0,97,0.00,,,0.00,VWS V14.01,2014-11-27 07:42:00,
2014-11-27 02:47:00,35.2,34.4,30.03,NE,46,0.0,0.0,97,0.00,,,0.00,VWS V14.01,2014-11-27 07:47:00,
2014-11-27 02:52:00,35.2,34.4,30.02,NE,46,0.0,0.0,97,0.00,,,0.00,VWS V14.01,2014-11-27 07:52:00,
2014-11-27 02:57:00,35.1,34.3,30.02,NE,46,0.0,0.0,97,0.00,,,0.00,VWS V14.01,2014-11-27 07:57:00,
2014-11-27 03:02:00,35.0,34.0,30.03,NE,46,0.0,0.0,96,0.00,,,0.00,VWS V14.01,2014-11-27 08:02:00,
2014-11-27 03:07:00,34.9,33.9,30.03,NE,46,0.0,0.0,96,0.00,,,0.00,VWS V14.01,2014-11-27 08:07:00,
2014-11-27 03:12:00,34.9,34.1,30.03,NE,46,0.0,0.0,97,0.00,,,0.00,VWS V14.01,2014-11-27 08:12:00,
2014-11-27 03:17:00,34.8,34.0,30.02,NE,46,0.0,0.0,97,0.00,,,0.00,VWS V14.01,2014-11-27 08:17:00,
2014-11-27 03:22:00,34.8,34.0,30.02,NE,46,0.0,0.0,97,0.00,,,0.00,VWS V14.01,2014-11-27 08:22:00,
2014-11-27 03:27:00,34.7,33.9,30.02,NE,46,0.0,0.0,97,0.00,,,0.00,VWS V14.01,2014-11-27 08:27:00,
2014-11-27 03:32:00,34.6,33.8,30.02,NE,46,0.0,0.0,97,0.00,,,0.00,VWS V14.01,2014-11-27 08:32:00,
2014-11-27 03:37:00,34.6,33.6,30.02,NE,46,0.0,0.0,96,0.00,,,0.00,VWS V14.01,2014-11-27 08:37:00,
2014-11-27 03:42:00,34.6,33.6,30.02,NE,46,0.0,0.0,96,0.00,,,0.00,VWS V14.01,2014-11-27 08:42:00,
2014-11-27 03:47:00,34.6,33.8,30.03,NE,46,0.0,0.0,97,0.00,,,0.00,VWS V14.01,2014-11-27 08:47:00,
2014-11-27 03:52:00,34.6,33.8,30.03,NE,46,0.0,0.0,97,0.00,,,0.00,VWS V14.01,2014-11-27 08:52:00,
2014-11-27 03:57:00,34.6,33.8,30.03,NE,46,0.0,0.0,97,0.00,,,0.00,VWS V14.01,2014-11-27 08:57:00,
2014-11-27 04:02:00,34.6,33.8,30.03,NE,46,0.0,0.0,97,0.00,,,0.00,VWS V14.01,2014-11-27 09:02:00,
2014-11-27 04:07:00,34.6,33.8,30.02,NE,46,0.0,0.0,97,0.00,,,0.00,VWS V14.01,2014-11-27 09:07:00,
2014-11-27 04:12:00,34.6,33.8,30.02,NE,46,0.0,0.0,97,0.00,,,0.00,VWS V14.01,2014-11-27 09:12:00,
2014-11-27 04:17:00,34.6,33.8,30.02,NE,46,0.0,0.0,97,0.00,,,0.00,VWS V14.01,2014-11-27 09:17:00,
2014-11-27 04:22:00,34.6,33.8,30.02,NE,46,0.0,0.0,97,0.00,,,0.00,VWS V14.01,2014-11-27 09:22:00,
2014-11-27 04:27:00,34.6,33.8,30.02,NE,46,0.0,0.0,97,0.00,,,0.00,VWS V14.01,2014-11-27 09:27:00,
2014-11-27 04:32:00,34.5,33.7,30.02,NE,46,0.0,0.0,97,0.00,,,0.00,VWS V14.01,2014-11-27 09:32:00,
2014-11-27 04:37:00,34.5,33.7,30.02,NE,46,0.0,0.0,97,0.00,,,0.00,VWS V14.01,2014-11-27 09:37:00,
2014-11-27 04:42:00,34.4,33.6,30.02,NE,46,0.0,0.0,97,0.00,,,0.00,VWS V14.01,2014-11-27 09:42:00,
2014-11-27 04:47:00,34.4,33.6,30.02,NE,46,0.0,0.0,97,0.00,,,0.00,VWS V14.01,2014-11-27 09:47:00,
2014-11-27 04:52:00,34.3,33.3,30.03,NE,46,0.0,0.0,96,0.00,,,0.00,VWS V14.01,2014-11-27 09:52:00,
2014-11-27 04:57:00,34.2,33.2,30.03,NE,46,0.0,0.0,96,0.00,,,0.00,VWS V14.01,2014-11-27 09:57:00,
2014-11-27 05:02:00,34.1,33.1,30.03,NE,46,0.0,0.0,96,0.00,,,0.00,VWS V14.01,2014-11-27 10:02:00,
2014-11-27 05:07:00,34.1,33.1,30.03,NE,46,0.0,0.0,96,0.00,,,0.00,VWS V14.01,2014-11-27 10:07:00,
2014-11-27 05:12:00,34.0,33.0,30.03,NE,46,0.0,0.0,96,0.00,,,0.00,VWS V14.01,2014-11-27 10:12:00,
2014-11-27 05:17:00,33.9,32.9,30.03,NE,46,0.0,0.0,96,0.00,,,0.00,VWS V14.01,2014-11-27 10:17:00,
2014-11-27 05:22:00,33.9,32.9,30.03,NE,46,0.0,0.0,96,0.00,,,0.00,VWS V14.01,2014-11-27 10:22:00,
2014-11-27 05:27:00,33.9,32.9,30.04,NE,46,0.0,0.0,96,0.00,,,0.00,VWS V14.01,2014-11-27 10:27:00,
2014-11-27 05:32:00,33.9,32.9,30.03,NE,46,0.0,0.0,96,0.00,,,0.00,VWS V14.01,2014-11-27 10:32:00,
2014-11-27 05:37:00,33.9,33.1,30.03,NE,46,0.0,0.0,97,0.00,,,0.00,VWS V14.01,2014-11-27 10:37:00,
2014-11-27 05:42:00,33.9,33.1,30.03,NE,46,0.0,0.0,97,0.00,,,0.00,VWS V14.01,2014-11-27 10:42:00,
2014-11-27 05:47:00,34.0,33.2,30.03,NE,46,0.0,0.0,97,0.00,,,0.00,VWS V14.01,2014-11-27 10:47:00,
2014-11-27 05:52:00,34.0,33.2,30.03,NE,46,0.0,0.0,97,0.00,,,0.00,VWS V14.01,2014-11-27 10:52:00,
2014-11-27 05:57:00,34.1,33.3,30.04,NE,46,0.0,0.0,97,0.00,,,0.00,VWS V14.01,2014-11-27 10:57:00,
2014-11-27 06:02:00,34.2,33.4,30.04,NE,46,0.0,0.0,97,0.00,,,0.00,VWS V14.01,2014-11-27 11:02:00,
2014-11-27 06:07:00,34.2,33.4,30.04,NE,46,0.0,0.0,97,0.00,,,0.00,VWS V14.01,2014-11-27 11:07:00,
2014-11-27 06:12:00,34.3,33.5,30.04,NE,46,0.0,0.0,97,0.00,,,0.00,VWS V14.01,2014-11-27 11:12:00,
2014-11-27 06:17:00,34.4,33.6,30.04,NE,46,0.0,0.0,97,0.00,,,0.00,VWS V14.01,2014-11-27 11:17:00,
2014-11-27 06:22:00,34.4,33.6,30.04,NE,46,0.0,0.0,97,0.00,,,0.00,VWS V14.01,2014-11-27 11:22:00,
2014-11-27 06:27:00,34.5,33.7,30.04,NE,46,0.0,0.0,97,0.00,,,0.00,VWS V14.01,2014-11-27 11:27:00,
2014-11-27 06:32:00,34.5,33.7,30.04,NE,46,0.0,0.0,97,0.00,,,0.00,VWS V14.01,2014-11-27 11:32:00,
2014-11-27 06:37:00,34.5,33.7,30.04,NE,46,0.0,0.0,97,0.00,,,0.00,VWS V14.01,2014-11-27 11:37:00,
2014-11-27 06:42:00,34.5,33.7,30.04,NE,46,0.0,0.0,97,0.00,,,0.00,VWS V14.01,2014-11-27 11:42:00,
2014-11-27 06:47:00,34.5,33.7,30.04,NE,46,0.0,0.0,97,0.00,,,0.00,VWS V14.01,2014-11-27 11:47:00,
2014-11-27 06:52:00,34.5,33.7,30.04,NE,46,0.0,0.0,97,0.00,,,0.00,VWS V14.01,2014-11-27 11:52:00,
2014-11-27 06:57:00,34.5,33.7,30.03,NE,46,1.0,2.0,97,0.00,,,0.00,VWS V14.01,2014-11-27 11:57:00,
2014-11-27 07:02:00,34.6,33.8,30.03,NE,46,2.0,3.0,97,0.00,,,0.00,VWS V14.01,2014-11-27 12:02:00,
2014-11-27 07:07:00,34.6,33.8,30.05,SW,232,1.0,1.0,97,0.00,,,0.00,VWS V14.01,2014-11-27 12:07:00,
2014-11-27 07:12:00,34.6,33.8,30.05,SW,232,0.0,1.0,97,0.00,,,0.00,VWS V14.01,2014-11-27 12:12:00,
2014-11-27 07:17:00,34.6,33.6,30.05,SW,232,0.0,0.0,96,0.00,,,0.00,VWS V14.01,2014-11-27 12:17:00,
2014-11-27 07:22:00,34.5,33.5,30.05,SW,232,0.0,0.0,96,0.00,,,0.00,VWS V14.01,2014-11-27 12:22:00,
2014-11-27 07:27:00,34.5,33.5,30.05,SW,232,0.0,0.0,96,0.00,,,0.00,VWS V14.01,2014-11-27 12:27:00,
2014-11-27 07:32:00,34.4,33.4,30.05,SW,232,0.0,0.0,96,0.00,,,0.00,VWS V14.01,2014-11-27 12:32:00,
2014-11-27 07:37:00,34.4,33.4,30.05,SW,232,0.0,0.0,96,0.00,,,0.00,VWS V14.01,2014-11-27 12:37:00,
2014-11-27 07:42:00,34.4,33.4,30.05,SW,232,0.0,0.0,96,0.00,,,0.00,VWS V14.01,2014-11-27 12:42:00,
2014-11-27 07:47:00,34.4,33.4,30.05,SW,232,0.0,0.0,96,0.00,,,0.00,VWS V14.01,2014-11-27 12:47:00,
2014-11-27 07:52:00,34.4,33.4,30.05,SW,232,0.0,0.0,96,0.00,,,0.00,VWS V14.01,2014-11-27 12:52:00,
2014-11-27 07:57:00,34.5,33.5,30.05,SW,232,0.0,0.0,96,0.00,,,0.00,VWS V14.01,2014-11-27 12:57:00,
2014-11-27 08:02:00,34.5,33.5,30.05,SW,232,0.0,0.0,96,0.00,,,0.00,VWS V14.01,2014-11-27 13:02:00,
2014-11-27 08:07:00,34.6,33.6,30.05,SW,232,0.0,0.0,96,0.00,,,0.00,VWS V14.01,2014-11-27 13:07:00,
2014-11-27 08:12:00,34.8,33.8,30.05,SW,232,0.0,0.0,96,0.00,,,0.00,VWS V14.01,2014-11-27 13:12:00,
2014-11-27 08:17:00,35.0,34.2,30.06,SW,232,0.0,0.0,97,0.00,,,0.00,VWS V14.01,2014-11-27 13:17:00,
2014-11-27 08:22:00,35.3,34.5,30.06,SW,232,0.0,0.0,97,0.00,,,0.00,VWS V14.01,2014-11-27 13:22:00,
2014-11-27 08:27:00,35.5,34.7,30.06,SW,232,0.0,0.0,97,0.00,,,0.00,VWS V14.01,2014-11-27 13:27:00,
2014-11-27 08:32:00,35.6,34.8,30.06,SW,232,0.0,0.0,97,0.00,,,0.00,VWS V14.01,2014-11-27 13:32:00,
2014-11-27 08:37:00,35.7,34.7,30.06,SW,232,0.0,0.0,96,0.00,,,0.00,VWS V14.01,2014-11-27 13:37:00,
2014-11-27 08:42:00,35.8,34.8,30.06,SW,232,0.0,0.0,96,0.00,,,0.00,VWS V14.01,2014-11-27 13:42:00,
2014-11-27 08:48:00,35.9,34.9,30.07,SW,232,0.0,0.0,96,0.00,,,0.00,VWS V14.01,2014-11-27 13:48:00,
2014-11-27 08:53:00,36.0,35.0,30.07,SW,232,0.0,0.0,96,0.00,,,0.00,VWS V14.01,2014-11-27 13:53:00,
2014-11-27 08:58:00,36.1,35.1,30.07,SW,232,0.0,0.0,96,0.00,,,0.00,VWS V14.01,2014-11-27 13:58:00,
2014-11-27 09:03:00,36.2,34.9,30.07,SW,232,0.0,0.0,95,0.00,,,0.00,VWS V14.01,2014-11-27 14:03:00,
2014-11-27 09:08:00,36.2,34.9,30.07,SW,232,0.0,0.0,95,0.00,,,0.00,VWS V14.01,2014-11-27 14:08:00,
2014-11-27 09:13:00,36.3,35.0,30.07,SW,232,0.0,0.0,95,0.00,,,0.00,VWS V14.01,2014-11-27 14:13:00,
2014-11-27 09:18:00,36.5,35.2,30.07,SW,232,0.0,0.0,95,0.00,,,0.00,VWS V14.01,2014-11-27 14:18:00,
2014-11-27 09:23:00,36.7,35.4,30.07,SW,232,0.0,0.0,95,0.00,,,0.00,VWS V14.01,2014-11-27 14:23:00,
2014-11-27 09:28:00,37.0,35.4,30.07,SW,232,0.0,0.0,94,0.00,,,0.00,VWS V14.01,2014-11-27 14:28:00,
2014-11-27 09:33:00,37.2,35.6,30.08,SW,232,0.0,0.0,94,0.00,,,0.00,VWS V14.01,2014-11-27 14:33:00,
2014-11-27 09:38:00,37.4,35.3,30.08,SW,232,0.0,0.0,92,0.00,,,0.00,VWS V14.01,2014-11-27 14:38:00,
2014-11-27 09:43:00,37.5,35.4,30.08,SW,232,0.0,0.0,92,0.00,,,0.00,VWS V14.01,2014-11-27 14:43:00,
2014-11-27 09:48:00,37.6,35.2,30.08,SW,232,0.0,0.0,91,0.00,,,0.00,VWS V14.01,2014-11-27 14:48:00,
2014-11-27 09:53:00,37.7,35.3,30.08,SW,232,0.0,0.0,91,0.00,,,0.00,VWS V14.01,2014-11-27 14:53:00,
2014-11-27 09:58:00,37.8,35.4,30.08,SW,232,0.0,0.0,91,0.00,,,0.00,VWS V14.01,2014-11-27 14:58:00,
2014-11-27 10:03:00,37.9,35.5,30.08,SW,232,0.0,0.0,91,0.00,,,0.00,VWS V14.01,2014-11-27 15:03:00,
2014-11-27 10:08:00,38.1,35.7,30.08,SW,232,0.0,0.0,91,0.00,,,0.00,VWS V14.01,2014-11-27 15:08:00,
2014-11-27 10:13:00,38.3,35.6,30.08,SW,232,0.0,1.0,90,0.00,,,0.00,VWS V14.01,2014-11-27 15:13:00,
2014-11-27 10:18:00,38.5,35.8,30.08,SW,232,0.0,0.0,90,0.00,,,0.00,VWS V14.01,2014-11-27 15:18:00,
2014-11-27 10:23:00,38.8,36.1,30.08,SW,232,0.0,0.0,90,0.00,,,0.00,VWS V14.01,2014-11-27 15:23:00,
2014-11-27 10:28:00,39.1,36.1,30.08,SW,232,0.0,0.0,89,0.00,,,0.00,VWS V14.01,2014-11-27 15:28:00,
2014-11-27 10:33:00,39.3,36.0,30.08,SW,232,0.0,0.0,88,0.00,,,0.00,VWS V14.01,2014-11-27 15:33:00,
2014-11-27 10:38:00,39.4,35.6,30.07,SW,232,0.0,0.0,86,0.00,,,0.00,VWS V14.01,2014-11-27 15:38:00,
2014-11-27 10:43:00,39.6,35.8,30.07,SW,232,0.0,0.0,86,0.00,,,0.00,VWS V14.01,2014-11-27 15:43:00,
2014-11-27 10:48:00,39.8,35.7,30.07,SW,232,0.0,0.0,85,0.00,,,0.00,VWS V14.01,2014-11-27 15:48:00,
2014-11-27 10:53:00,40.1,36.5,30.07,South,188,2.0,2.0,87,0.00,,,0.00,VWS V14.01,2014-11-27 15:53:00,
2014-11-27 10:58:00,40.4,36.0,30.07,ENE,69,1.0,1.0,84,0.00,,,0.00,VWS V14.01,2014-11-27 15:58:00,
2014-11-27 11:03:00,40.4,35.7,30.07,ENE,69,0.0,0.0,83,0.00,,,0.00,VWS V14.01,2014-11-27 16:03:00,
2014-11-27 11:08:00,40.4,35.7,30.07,West,263,2.0,2.0,83,0.00,,,0.00,VWS V14.01,2014-11-27 16:08:00,
2014-11-27 11:13:00,40.5,35.5,30.07,North,9,0.0,0.0,82,0.00,,,0.00,VWS V14.01,2014-11-27 16:13:00,
2014-11-27 11:18:00,40.6,35.5,30.07,North,9,0.0,0.0,82,0.00,,,0.00,VWS V14.01,2014-11-27 16:18:00,
2014-11-27 11:23:00,40.6,35.5,30.06,North,9,0.0,0.0,82,0.00,,,0.00,VWS V14.01,2014-11-27 16:23:00,
2014-11-27 11:28:00,40.8,35.7,30.06,North,9,0.0,0.0,82,0.00,,,0.00,VWS V14.01,2014-11-27 16:28:00,
2014-11-27 11:33:00,41.1,36.3,30.06,North,9,0.0,0.0,83,0.00,,,0.00,VWS V14.01,2014-11-27 16:33:00,
2014-11-27 11:38:00,41.5,36.4,30.05,East,101,0.0,0.0,82,0.00,,,0.00,VWS V14.01,2014-11-27 16:38:00,
2014-11-27 11:43:00,42.0,36.9,30.05,East,101,0.0,0.0,82,0.00,,,0.00,VWS V14.01,2014-11-27 16:43:00,
2014-11-27 11:48:00,42.6,36.5,30.05,North,360,0.0,0.0,79,0.00,,,0.00,VWS V14.01,2014-11-27 16:48:00,
2014-11-27 11:53:00,42.9,36.5,30.05,NE,41,2.0,3.0,78,0.00,,,0.00,VWS V14.01,2014-11-27 16:53:00,
2014-11-27 11:58:00,43.1,36.4,30.05,NE,41,0.0,0.0,77,0.00,,,0.00,VWS V14.01,2014-11-27 16:58:00,
2014-11-27 12:03:00,43.4,37.3,30.05,NE,41,0.0,0.0,79,0.00,,,0.00,VWS V14.01,2014-11-27 17:03:00,
2014-11-27 12:08:00,43.6,37.2,30.05,NE,41,0.0,4.0,78,0.00,,,0.00,VWS V14.01,2014-11-27 17:08:00,
2014-11-27 12:13:00,43.6,36.2,30.05,ENE,60,0.0,1.0,75,0.00,,,0.00,VWS V14.01,2014-11-27 17:13:00,
2014-11-27 12:18:00,43.6,37.2,30.04,ENE,60,1.0,1.0,78,0.00,,,0.00,VWS V14.01,2014-11-27 17:18:00,
2014-11-27 12:23:00,43.6,36.5,30.04,NNE,26,0.0,0.0,76,0.00,,,0.00,VWS V14.01,2014-11-27 17:23:00,
2014-11-27 12:28:00,43.6,35.9,30.04,NNE,26,0.0,0.0,74,0.00,,,0.00,VWS V14.01,2014-11-27 17:28:00,
2014-11-27 12:33:00,43.7,36.3,30.04,SW,227,0.0,0.0,75,0.00,,,0.00,VWS V14.01,2014-11-27 17:33:00,
2014-11-27 12:38:00,43.9,36.2,30.04,NNE,27,0.0,0.0,74,0.00,,,0.00,VWS V14.01,2014-11-27 17:38:00,
2014-11-27 12:43:00,44.0,35.9,30.05,NNE,27,0.0,0.0,73,0.00,,,0.00,VWS V14.01,2014-11-27 17:43:00,
2014-11-27 12:48:00,44.0,35.6,30.05,NNE,31,1.0,1.0,72,0.00,,,0.00,VWS V14.01,2014-11-27 17:48:00,
2014-11-27 12:53:00,43.9,35.8,30.05,ENE,63,1.0,1.0,73,0.00,,,0.00,VWS V14.01,2014-11-27 17:53:00,
2014-11-27 12:58:00,43.8,35.7,30.05,NE,43,0.0,0.0,73,0.00,,,0.00,VWS V14.01,2014-11-27 17:58:00,
2014-11-27 13:03:00,43.9,35.8,30.05,NE,43,0.0,0.0,73,0.00,,,0.00,VWS V14.01,2014-11-27 18:03:00,
2014-11-27 13:08:00,43.9,35.8,30.05,ESE,105,2.0,2.0,73,0.00,,,0.00,VWS V14.01,2014-11-27 18:08:00,
2014-11-27 13:13:00,43.8,35.0,30.05,ESE,105,0.0,0.0,71,0.00,,,0.00,VWS V14.01,2014-11-27 18:13:00,
2014-11-27 13:18:00,43.7,35.6,30.05,ESE,105,0.0,0.0,73,0.00,,,0.00,VWS V14.01,2014-11-27 18:18:00,
2014-11-27 13:23:00,43.7,35.6,30.05,ESE,105,0.0,0.0,73,0.00,,,0.00,VWS V14.01,2014-11-27 18:23:00,
2014-11-27 13:28:00,43.6,34.8,30.05,ESE,105,0.0,0.0,71,0.00,,,0.00,VWS V14.01,2014-11-27 18:28:00,
2014-11-27 13:33:00,43.6,35.2,30.05,ESE,105,0.0,0.0,72,0.00,,,0.00,VWS V14.01,2014-11-27 18:33:00,
2014-11-27 13:38:00,43.5,35.1,30.05,West,265,0.0,0.0,72,0.00,,,0.00,VWS V14.01,2014-11-27 18:38:00,
2014-11-27 13:43:00,43.5,35.4,30.05,West,265,0.0,0.0,73,0.00,,,0.00,VWS V14.01,2014-11-27 18:43:00,
2014-11-27 13:48:00,43.5,35.1,30.05,West,265,0.0,0.0,72,0.00,,,0.00,VWS V14.01,2014-11-27 18:48:00,
2014-11-27 13:53:00,43.5,34.0,30.05,West,264,0.0,1.0,69,0.00,,,0.00,VWS V14.01,2014-11-27 18:53:00,
2014-11-27 13:58:00,43.4,33.9,30.05,West,267,0.0,0.0,69,0.00,,,0.00,VWS V14.01,2014-11-27 18:58:00,
2014-11-27 14:03:00,43.5,34.4,30.05,East,82,0.0,5.0,70,0.00,,,0.00,VWS V14.01,2014-11-27 19:03:00,
2014-11-27 14:08:00,43.5,34.7,30.05,SE,143,0.0,1.0,71,0.00,,,0.00,VWS V14.01,2014-11-27 19:08:00,
2014-11-27 14:13:00,43.6,34.5,30.05,SE,143,0.0,0.0,70,0.00,,,0.00,VWS V14.01,2014-11-27 19:13:00,
2014-11-27 14:18:00,44.0,33.8,30.05,West,275,0.0,1.0,67,0.00,,,0.00,VWS V14.01,2014-11-27 19:18:00,
2014-11-27 14:23:00,44.3,33.7,30.05,West,271,0.0,0.0,66,0.00,,,0.00,VWS V14.01,2014-11-27 19:23:00,
2014-11-27 14:28:00,44.6,33.6,30.05,WSW,254,0.0,0.0,65,0.00,,,0.00,VWS V14.01,2014-11-27 19:28:00,
2014-11-27 14:33:00,44.6,33.2,30.05,NE,40,0.0,0.0,64,0.00,,,0.00,VWS V14.01,2014-11-27 19:33:00,
2014-11-27 14:38:00,44.5,33.1,30.05,SW,233,0.0,1.0,64,0.00,,,0.00,VWS V14.01,2014-11-27 19:38:00,
2014-11-27 14:43:00,44.4,33.4,30.05,WSW,244,1.0,1.0,65,0.00,,,0.00,VWS V14.01,2014-11-27 19:43:00,
2014-11-27 14:48:00,44.1,32.7,30.05,SSW,211,0.0,2.0,64,0.00,,,0.00,VWS V14.01,2014-11-27 19:48:00,
2014-11-27 14:53:00,43.9,32.9,30.06,SSW,195,0.0,0.0,65,0.00,,,0.00,VWS V14.01,2014-11-27 19:53:00,
2014-11-27 14:58:00,43.8,33.2,30.06,SSW,195,0.0,0.0,66,0.00,,,0.00,VWS V14.01,2014-11-27 19:58:00,
2014-11-27 15:03:00,43.8,32.4,30.06,West,271,0.0,1.0,64,0.00,,,0.00,VWS V14.01,2014-11-27 20:03:00,
2014-11-27 15:08:00,43.9,32.9,30.06,West,271,0.0,0.0,65,0.00,,,0.00,VWS V14.01,2014-11-27 20:08:00,
2014-11-27 15:13:00,44.0,33.0,30.06,West,271,0.0,1.0,65,0.00,,,0.00,VWS V14.01,2014-11-27 20:13:00,
2014-11-27 15:18:00,43.9,32.9,30.06,SSW,197,0.0,0.0,65,0.00,,,0.00,VWS V14.01,2014-11-27 20:18:00,
2014-11-27 15:23:00,43.8,32.8,30.06,NW,323,0.0,0.0,65,0.00,,,0.00,VWS V14.01,2014-11-27 20:23:00,
2014-11-27 15:28:00,43.7,33.5,30.06,NW,325,0.0,1.0,67,0.00,,,0.00,VWS V14.01,2014-11-27 20:28:00,
2014-11-27 15:33:00,43.5,32.9,30.07,NW,325,0.0,0.0,66,0.00,,,0.00,VWS V14.01,2014-11-27 20:33:00,
2014-11-27 15:38:00,43.4,33.9,30.07,SSW,210,0.0,0.0,69,0.00,,,0.00,VWS V14.01,2014-11-27 20:38:00,
2014-11-27 15:43:00,43.2,33.4,30.07,SSW,210,0.0,0.0,68,0.00,,,0.00,VWS V14.01,2014-11-27 20:43:00,
2014-11-27 15:48:00,43.1,32.5,30.07,West,275,0.0,0.0,66,0.00,,,0.00,VWS V14.01,2014-11-27 20:48:00,
2014-11-27 15:53:00,42.9,32.7,30.07,West,275,0.0,1.0,67,0.00,,,0.00,VWS V14.01,2014-11-27 20:53:00,
2014-11-27 15:58:00,42.8,32.2,30.07,South,188,0.0,1.0,66,0.00,,,0.00,VWS V14.01,2014-11-27 20:58:00,
2014-11-27 16:03:00,42.7,32.9,30.07,South,188,0.0,0.0,68,0.00,,,0.00,VWS V14.01,2014-11-27 21:03:00,